Meteo Giornale » Osservazioni meteo Stati Uniti (USA) » Trinidad Perry Stokes
ore: 22:54 - Osservazioni Meteo Trinidad Perry Stokes
Lat. 37° 16' N Lon. 104° 26' W Alt. 1756 metri s.l.m.
18 °C
Coperto
Temp. 24 Ore
14 °C
31 °C
Sud
11.1 Km/h
Dew point 15 °C
Umidità 82 %
Visibilità 10 Km
Il sole sorge alle ore 06:27
Il sole tramonta alle ore 19:28
| Data e Ora | Cielo e Fenomeni | T °C | DP °C | Um. % | Pres. hPa | Vis. km | Vento km/h | |
|---|---|---|---|---|---|---|---|---|
| Oggi h: 22:54 | Coperto | 18 | 15 | 82 | 1024 | 10 | S 11.1 | |
| Oggi h: 21:54 | Molto Nuvoloso | 18 | 14 | 77 | 1024 | 10 | O 7.4 | |
| Oggi h: 20:54 | Coperto | 18 | 14 | 77 | 1024 | 10 | S 11.1 | |
| Oggi h: 20:43 | Temporale nelle vicinanze | 18 | 15 | 82 | 1023 | 10 | N 5.5 | |
| Oggi h: 19:54 | Molto Nuvoloso | 21 | 12 | 56 | 1023 | 10 | S/SO 11.1 | |
| Oggi h: 18:54 | Nuvoloso | 21 | 12 | 56 | 1022 | 10 | SE 13 | |
| Oggi h: 17:54 | Molto Nuvoloso | 23 | 14 | 56 | 1021 | 10 | E 18.5 | |
| Oggi h: 16:54 | Poco Nuvoloso | 23 | 12 | 49 | 1021 | 10 | N/NO 14.8 | |
| Oggi h: 16:41 | Pioggia | 21 | 13 | 60 | 1021 | 10 | NO 16.7 | |
| Oggi h: 15:54 | Molto Nuvoloso | 23 | 13 | 53 | 1022 | 10 | N/NO 20.3 | |
| Oggi h: 15:42 | Coperto | 20 | 13 | 64 | 1022 | 10 | NO 25.9 | |
| Oggi h: 15:28 | Temporale | 22 | 11 | 49 | 1022 | 10 | NO 33.3 | |
| Oggi h: 15:16 | Temporale nelle vicinanze | 24 | 10 | 41 | 1022 | 10 | O/NO 44.4 | |
| Oggi h: 14:54 | Poco Nuvoloso | 30 | 9 | 27 | 1021 | 10 | E 11.1 | |
| Oggi h: 13:54 | Sereno | 31 | 9 | 25 | 1021 | 10 | E 16.7 | |
| Oggi h: 12:54 | Sereno | 30 | 8 | 25 | 1022 | 10 | E/NE 11.1 | |
| Oggi h: 11:54 | Sereno | 29 | 10 | 30 | 1023 | 10 | N 11.1 | |
| Oggi h: 10:54 | Molto Nuvoloso | 28 | 11 | 34 | 1023 | 10 | O/NO 13 | |
| Oggi h: 09:54 | Sereno | 24 | 11 | 43 | 1023 | 10 | NO 11.1 | |
| Oggi h: 08:54 | Sereno | 22 | 10 | 46 | 1023 | 10 | O 22.2 | |
| Oggi h: 07:54 | Sereno | 18 | 11 | 63 | 1023 | 10 | O 20.3 | |
| Oggi h: 06:54 | Sereno | 16 | 11 | 72 | 1023 | 10 | O 18.5 | |
| Oggi h: 05:54 | Sereno | 16 | 12 | 77 | 1022 | 10 | O/SO 20.3 | |
| Oggi h: 04:54 | Sereno | 14 | 11 | 82 | 1022 | 10 | O/SO 14.8 | |
| Oggi h: 03:54 | Sereno | 16 | 12 | 77 | 1023 | 10 | S 14.8 | |
| Oggi h: 02:54 | Sereno | 16 | 13 | 82 | 1023 | 10 | S 9.3 | |
| Oggi h: 01:54 | Pioggia | 17 | 14 | 82 | 1023 | 10 | S 9.3 | |
| Oggi h: 00:54 | Nuvoloso | 18 | 12 | 67 | 1023 | 10 | N 5.5 | |
| Ieri h: 23:54 | Molto Nuvoloso | 18 | 12 | 67 | 1023 | 10 | NO 16.7 | |



